createdAt,value
2023-05-01T00:00:26.068Z,10.43
2023-05-01T00:01:26.096Z,10.43
2023-05-01T00:02:26.134Z,10.42
2023-05-01T00:03:26.194Z,10.43
2023-05-01T00:04:26.081Z,10.44
2023-05-01T00:05:26.033Z,10.43
2023-05-01T00:06:26.061Z,10.39
2023-05-01T00:07:26.006Z,10.36
2023-05-01T00:08:25.985Z,10.37
2023-05-01T00:09:25.964Z,10.34
2023-05-01T00:10:25.983Z,10.32
2023-05-01T00:11:25.975Z,10.30
2023-05-01T00:12:25.961Z,10.26
2023-05-01T00:13:25.932Z,10.25
2023-05-01T00:14:25.998Z,10.21
2023-05-01T00:15:25.925Z,10.21
2023-05-01T00:16:25.997Z,10.18
2023-05-01T00:17:25.935Z,10.21
2023-05-01T00:18:25.873Z,10.22
2023-05-01T00:19:25.878Z,10.21
2023-05-01T00:20:25.870Z,10.21
2023-05-01T00:21:25.851Z,10.21
2023-05-01T00:22:25.829Z,10.22
2023-05-01T00:23:25.846Z,10.21
2023-05-01T00:24:25.803Z,10.22
2023-05-01T00:25:25.832Z,10.21
2023-05-01T00:26:25.793Z,10.14
2023-05-01T00:27:25.815Z,10.14
2023-05-01T00:28:25.776Z,10.12
2023-05-01T00:29:25.777Z,10.09
2023-05-01T00:30:25.768Z,10.06
2023-05-01T00:31:25.992Z,10.06
2023-05-01T00:32:25.830Z,10.04
2023-05-01T00:33:25.735Z,10.03
2023-05-01T00:34:25.724Z,10.07
2023-05-01T00:35:25.720Z,10.07
2023-05-01T00:36:25.702Z,10.06
2023-05-01T00:37:25.704Z,10.06
2023-05-01T00:38:25.688Z,10.07
2023-05-01T00:39:25.669Z,10.06
2023-05-01T00:40:25.658Z,10.03
2023-05-01T00:41:25.652Z,10.01
2023-05-01T00:42:25.640Z,9.97
2023-05-01T00:43:25.628Z,9.93
2023-05-01T00:44:25.625Z,9.86
2023-05-01T00:45:25.631Z,9.86
2023-05-01T00:46:25.758Z,9.89
2023-05-01T00:47:25.604Z,9.93
2023-05-01T00:48:25.581Z,9.93
2023-05-01T00:49:25.586Z,9.94
2023-05-01T00:50:25.559Z,9.94
2023-05-01T00:51:25.552Z,9.96
2023-05-01T00:52:25.535Z,9.99
2023-05-01T00:53:25.525Z,10.00
2023-05-01T00:54:25.521Z,10.01
2023-05-01T00:55:25.530Z,10.01
2023-05-01T00:56:25.509Z,10.06
2023-05-01T00:57:25.493Z,10.07
2023-05-01T00:58:25.463Z,10.10
2023-05-01T00:59:25.485Z,10.10
2023-05-01T01:00:25.481Z,10.10
2023-05-01T01:01:25.507Z,10.07
2023-05-01T01:02:25.488Z,10.07
2023-05-01T01:03:25.418Z,10.07
2023-05-01T01:04:25.477Z,10.10
2023-05-01T01:05:25.440Z,10.09
2023-05-01T01:06:25.518Z,10.09
2023-05-01T01:07:25.411Z,10.09
2023-05-01T01:08:25.372Z,10.12
2023-05-01T01:09:25.373Z,10.12
2023-05-01T01:10:25.375Z,10.14
2023-05-01T01:11:25.361Z,10.15
2023-05-01T01:12:25.332Z,10.17
2023-05-01T01:13:25.327Z,10.17
2023-05-01T01:14:25.293Z,10.22
2023-05-01T01:15:25.340Z,10.24
2023-05-01T01:16:25.367Z,10.28
2023-05-01T01:17:25.294Z,10.26
2023-05-01T01:18:25.294Z,10.26
2023-05-01T01:19:25.266Z,10.25
2023-05-01T01:20:25.358Z,10.24
2023-05-01T01:21:25.241Z,10.22
2023-05-01T01:22:25.227Z,10.24
2023-05-01T01:23:25.215Z,10.22
2023-05-01T01:24:25.205Z,10.19
2023-05-01T01:25:25.203Z,10.18
2023-05-01T01:26:25.165Z,10.21
2023-05-01T01:27:25.168Z,10.21
2023-05-01T01:28:25.171Z,10.17
2023-05-01T01:29:25.153Z,10.10
2023-05-01T01:30:25.191Z,10.09
2023-05-01T01:31:25.184Z,10.06
2023-05-01T01:32:25.198Z,10.06
2023-05-01T01:33:25.117Z,10.09
2023-05-01T01:34:25.120Z,10.12
2023-05-01T01:35:25.121Z,10.17
2023-05-01T01:36:25.079Z,10.18
2023-05-01T01:37:25.083Z,10.19
2023-05-01T01:38:25.082Z,10.19
2023-05-01T01:39:25.042Z,10.22
2023-05-01T01:40:25.059Z,10.21
2023-05-01T01:41:25.035Z,10.22
2023-05-01T01:42:25.036Z,10.24
2023-05-01T01:43:25.017Z,10.28
2023-05-01T01:44:25.006Z,10.30
2023-05-01T01:45:25.004Z,10.26
2023-05-01T01:46:25.062Z,10.26
2023-05-01T01:47:24.995Z,10.28
2023-05-01T01:48:24.982Z,10.28
2023-05-01T01:49:24.980Z,10.32
2023-05-01T01:50:24.979Z,10.34
2023-05-01T01:51:24.932Z,10.37
2023-05-01T01:52:24.921Z,10.39
2023-05-01T01:53:24.925Z,10.36
2023-05-01T01:54:24.905Z,10.34
2023-05-01T01:55:24.934Z,10.32
2023-05-01T01:56:24.889Z,10.30
2023-05-01T01:57:24.889Z,10.32
2023-05-01T01:58:24.889Z,10.32
2023-05-01T01:59:24.853Z,10.36
2023-05-01T02:00:24.858Z,10.37
2023-05-01T02:01:24.880Z,10.42
2023-05-01T02:02:24.895Z,10.43
2023-05-01T02:03:24.878Z,10.43
2023-05-01T02:04:24.797Z,10.46
2023-05-01T02:05:24.794Z,10.46
2023-05-01T02:06:24.808Z,10.47
2023-05-01T02:07:24.756Z,10.51
2023-05-01T02:08:24.785Z,10.51
2023-05-01T02:09:24.784Z,10.52
2023-05-01T02:10:24.791Z,10.52
2023-05-01T02:11:24.802Z,10.53
2023-05-01T02:12:24.804Z,10.55
2023-05-01T02:13:24.738Z,10.55
2023-05-01T02:14:24.693Z,10.51
2023-05-01T02:15:24.733Z,10.47
2023-05-01T02:16:24.766Z,10.47
2023-05-01T02:17:24.758Z,10.46
2023-05-01T02:18:24.687Z,10.44
2023-05-01T02:19:24.651Z,10.44
2023-05-01T02:20:24.647Z,10.46
2023-05-01T02:21:24.650Z,10.47
2023-05-01T02:22:24.627Z,10.46
2023-05-01T02:23:24.626Z,10.47
2023-05-01T02:24:24.602Z,10.46
2023-05-01T02:25:24.591Z,10.47
2023-05-01T02:26:24.571Z,10.46
2023-05-01T02:27:24.593Z,10.44
2023-05-01T02:28:24.583Z,10.44
2023-05-01T02:29:24.554Z,10.46
2023-05-01T02:30:24.639Z,10.44
2023-05-01T02:31:24.576Z,10.43
2023-05-01T02:32:24.583Z,10.42
2023-05-01T02:33:24.495Z,10.40
2023-05-01T02:34:24.478Z,10.39
2023-05-01T02:35:24.536Z,10.39
2023-05-01T02:36:24.474Z,10.36
2023-05-01T02:37:24.449Z,10.34
2023-05-01T02:38:24.499Z,10.34
2023-05-01T02:39:24.435Z,10.36
2023-05-01T02:40:24.458Z,10.36
2023-05-01T02:41:24.424Z,10.36
2023-05-01T02:42:24.444Z,10.34
2023-05-01T02:43:24.399Z,10.36
2023-05-01T02:44:24.386Z,10.36
2023-05-01T02:45:24.473Z,10.30
2023-05-01T02:46:24.392Z,10.32
2023-05-01T02:47:24.470Z,10.34
2023-05-01T02:48:24.361Z,10.37
2023-05-01T02:49:24.335Z,10.37
2023-05-01T02:50:24.351Z,10.36
2023-05-01T02:51:24.323Z,10.36
2023-05-01T02:52:24.314Z,10.34
2023-05-01T02:53:24.315Z,10.30
2023-05-01T02:54:24.291Z,10.28
2023-05-01T02:55:24.304Z,10.26
2023-05-01T02:56:24.284Z,10.25
2023-05-01T02:57:24.257Z,10.25
2023-05-01T02:58:24.249Z,10.25
2023-05-01T02:59:24.232Z,10.25
2023-05-01T03:00:24.246Z,10.28
2023-05-01T03:01:24.310Z,10.28
2023-05-01T03:02:24.210Z,10.32
2023-05-01T03:03:24.378Z,10.32
2023-05-01T03:04:24.250Z,10.32
2023-05-01T03:05:24.206Z,10.33
2023-05-01T03:06:24.182Z,10.26
2023-05-01T03:07:24.162Z,10.25
2023-05-01T03:08:24.137Z,10.25
2023-05-01T03:09:24.135Z,10.22
2023-05-01T03:10:24.121Z,10.21
2023-05-01T03:11:24.109Z,10.21
2023-05-01T03:12:24.098Z,10.21
2023-05-01T03:13:24.093Z,10.22
2023-05-01T03:14:24.081Z,10.22
2023-05-01T03:15:24.073Z,10.21
2023-05-01T03:16:24.123Z,10.17
2023-05-01T03:17:24.118Z,10.17
2023-05-01T03:18:24.041Z,10.17
2023-05-01T03:19:24.027Z,10.15
2023-05-01T03:20:24.856Z,10.14
2023-05-01T03:21:23.994Z,10.12
2023-05-01T03:22:24.002Z,10.14
2023-05-01T03:23:23.978Z,10.15
2023-05-01T03:24:24.009Z,10.15
2023-05-01T03:25:23.978Z,10.15
2023-05-01T03:26:23.965Z,10.14
2023-05-01T03:27:23.941Z,10.15
2023-05-01T03:28:23.926Z,10.18
2023-05-01T03:29:23.917Z,10.18
2023-05-01T03:30:23.924Z,10.21
2023-05-01T03:31:23.912Z,10.21
2023-05-01T03:32:24.012Z,10.19
2023-05-01T03:33:23.883Z,10.17
2023-05-01T03:34:23.885Z,10.15
2023-05-01T03:35:23.901Z,10.15
2023-05-01T03:36:23.776Z,10.12
2023-05-01T03:37:23.784Z,10.09
2023-05-01T03:38:23.788Z,10.10
2023-05-01T03:39:23.762Z,10.12
2023-05-01T03:40:23.767Z,10.15
2023-05-01T03:41:23.765Z,10.14
2023-05-01T03:42:23.756Z,10.12
2023-05-01T03:43:23.799Z,10.14
2023-05-01T03:44:23.712Z,10.15
2023-05-01T03:45:24.100Z,10.15
2023-05-01T03:46:23.700Z,10.17
2023-05-01T03:47:23.717Z,10.17
2023-05-01T03:48:23.688Z,10.17
2023-05-01T03:49:23.651Z,10.15
2023-05-01T03:50:23.660Z,10.15
2023-05-01T03:51:23.623Z,10.17
2023-05-01T03:52:23.635Z,10.18
2023-05-01T03:53:23.628Z,10.17
2023-05-01T03:54:23.662Z,10.18
2023-05-01T03:55:23.605Z,10.18
2023-05-01T03:56:23.599Z,10.17
2023-05-01T03:57:23.588Z,10.18
2023-05-01T03:58:23.588Z,10.17
2023-05-01T03:59:23.562Z,10.18
2023-05-01T04:00:23.590Z,10.17
2023-05-01T04:01:23.526Z,10.17
2023-05-01T04:02:23.612Z,10.17
2023-05-01T04:03:23.602Z,10.15
2023-05-01T04:04:23.617Z,10.14
2023-05-01T04:05:23.507Z,10.15
2023-05-01T04:06:23.520Z,10.15
2023-05-01T04:07:23.467Z,10.14
2023-05-01T04:08:23.464Z,10.15
2023-05-01T04:09:23.454Z,10.14
2023-05-01T04:10:23.461Z,10.15
2023-05-01T04:11:23.433Z,10.15
2023-05-01T04:12:23.432Z,10.17
2023-05-01T04:13:23.432Z,10.18
2023-05-01T04:14:23.405Z,10.15
2023-05-01T04:15:23.432Z,10.15
2023-05-01T04:16:23.433Z,10.17
2023-05-01T04:17:23.385Z,10.18
2023-05-01T04:18:23.360Z,10.21
2023-05-01T04:19:23.348Z,10.22
2023-05-01T04:20:23.340Z,10.22
2023-05-01T04:21:23.323Z,10.25
2023-05-01T04:22:23.329Z,10.22
2023-05-01T04:23:24.776Z,10.22
2023-05-01T04:24:23.306Z,10.21
2023-05-01T04:25:23.318Z,10.19
2023-05-01T04:26:23.289Z,10.15
2023-05-01T04:27:23.289Z,10.14
2023-05-01T04:28:23.280Z,10.14
2023-05-01T04:29:23.262Z,10.10
2023-05-01T04:30:23.252Z,10.12
2023-05-01T04:31:23.273Z,10.14
2023-05-01T04:32:23.237Z,10.14
2023-05-01T04:33:23.202Z,10.15
2023-05-01T04:34:23.311Z,10.14
2023-05-01T04:35:23.294Z,10.12
2023-05-01T04:36:23.177Z,10.12
2023-05-01T04:37:23.266Z,10.10
2023-05-01T04:38:23.162Z,10.17
2023-05-01T04:39:23.154Z,10.19
2023-05-01T04:40:23.152Z,10.19
2023-05-01T04:41:23.124Z,10.21
2023-05-01T04:42:23.110Z,10.25
2023-05-01T04:43:23.148Z,10.30
2023-05-01T04:44:23.126Z,10.30
2023-05-01T04:45:23.144Z,10.28
2023-05-01T04:46:23.246Z,10.26
2023-05-01T04:47:23.098Z,10.30
2023-05-01T04:48:23.303Z,10.33
2023-05-01T04:49:23.047Z,10.30
2023-05-01T04:50:23.075Z,10.28
2023-05-01T04:51:23.032Z,10.28
2023-05-01T04:52:23.059Z,10.28
2023-05-01T04:53:23.002Z,10.26
2023-05-01T04:54:22.987Z,10.24
2023-05-01T04:55:22.993Z,10.24
2023-05-01T04:56:22.974Z,10.22
2023-05-01T04:57:22.957Z,10.24
2023-05-01T04:58:23.042Z,10.25
2023-05-01T04:59:22.941Z,10.18
2023-05-01T05:00:23.006Z,10.17
2023-05-01T05:01:22.952Z,10.17
2023-05-01T05:02:22.910Z,10.18
2023-05-01T05:03:22.951Z,10.22
2023-05-01T05:04:22.877Z,10.24
2023-05-01T05:05:22.925Z,10.24
2023-05-01T05:06:22.968Z,10.25
2023-05-01T05:07:22.853Z,10.22
2023-05-01T05:08:22.845Z,10.25
2023-05-01T05:09:22.839Z,10.25
2023-05-01T05:10:22.836Z,10.22
2023-05-01T05:11:22.819Z,10.24
2023-05-01T05:12:22.833Z,10.25
2023-05-01T05:13:22.803Z,10.22
2023-05-01T05:14:22.832Z,10.18
2023-05-01T05:15:22.794Z,10.15
2023-05-01T05:16:22.822Z,10.18
2023-05-01T05:17:22.753Z,10.17
2023-05-01T05:18:22.777Z,10.15
2023-05-01T05:19:22.762Z,10.17
2023-05-01T05:20:22.765Z,10.18
2023-05-01T05:21:22.710Z,10.19
2023-05-01T05:22:22.744Z,10.21
2023-05-01T05:23:22.673Z,10.21
2023-05-01T05:24:22.681Z,10.25
2023-05-01T05:25:22.724Z,10.26
2023-05-01T05:26:22.648Z,10.28
2023-05-01T05:27:22.670Z,10.28
2023-05-01T05:28:22.645Z,10.30
2023-05-01T05:29:22.642Z,10.28
2023-05-01T05:30:22.665Z,10.26
2023-05-01T05:31:22.688Z,10.28
2023-05-01T05:32:22.879Z,10.26
2023-05-01T05:33:22.591Z,10.21
2023-05-01T05:34:22.595Z,10.15
2023-05-01T05:35:22.603Z,10.09
2023-05-01T05:36:22.555Z,10.07
2023-05-01T05:37:22.567Z,10.07
2023-05-01T05:38:22.562Z,10.07
2023-05-01T05:39:22.546Z,10.06
2023-05-01T05:40:22.526Z,10.07
2023-05-01T05:41:22.515Z,10.09
2023-05-01T05:42:22.507Z,10.14
2023-05-01T05:43:22.502Z,10.17
2023-05-01T05:44:22.475Z,10.22
2023-05-01T05:45:22.481Z,10.25
2023-05-01T05:46:22.547Z,10.32
2023-05-01T05:47:22.429Z,10.39
2023-05-01T05:48:22.483Z,10.42
2023-05-01T05:49:22.454Z,10.51
2023-05-01T05:50:22.426Z,10.46
2023-05-01T05:51:22.532Z,10.44
2023-05-01T05:52:22.385Z,10.51
2023-05-01T05:53:24.386Z,10.53
2023-05-01T05:54:22.380Z,10.58
2023-05-01T05:55:22.657Z,10.55
2023-05-01T05:56:22.355Z,10.46
2023-05-01T05:57:22.335Z,10.39
2023-05-01T05:58:22.346Z,10.34
2023-05-01T05:59:22.322Z,10.30
2023-05-01T06:00:22.319Z,10.30
2023-05-01T06:01:22.289Z,10.33
2023-05-01T06:02:22.397Z,10.34
2023-05-01T06:03:22.393Z,10.37
2023-05-01T06:04:22.282Z,10.47
2023-05-01T06:05:22.372Z,10.58
2023-05-01T06:06:22.311Z,10.68
2023-05-01T06:07:22.251Z,10.70
2023-05-01T06:08:22.248Z,10.70
2023-05-01T06:09:22.228Z,10.77
2023-05-01T06:10:22.247Z,10.83
2023-05-01T06:11:22.198Z,10.92
2023-05-01T06:12:22.174Z,11.03
2023-05-01T06:13:22.202Z,11.17
2023-05-01T06:14:22.157Z,11.28
2023-05-01T06:15:22.171Z,11.34
2023-05-01T06:16:22.163Z,11.38
2023-05-01T06:17:22.137Z,11.39
2023-05-01T06:18:22.238Z,11.38
2023-05-01T06:19:22.128Z,11.34
2023-05-01T06:20:22.122Z,11.34
2023-05-01T06:21:22.095Z,11.35
2023-05-01T06:22:22.090Z,11.36
2023-05-01T06:23:22.081Z,11.38
2023-05-01T06:24:22.067Z,11.41
2023-05-01T06:25:22.094Z,11.39
2023-05-01T06:26:22.028Z,11.39
2023-05-01T06:27:22.046Z,11.34
2023-05-01T06:28:22.037Z,11.36
2023-05-01T06:29:22.030Z,11.39
2023-05-01T06:30:22.051Z,11.43
2023-05-01T06:31:22.043Z,11.47
2023-05-01T06:32:21.988Z,11.49
2023-05-01T06:33:21.979Z,11.44
2023-05-01T06:34:21.973Z,11.43
2023-05-01T06:35:21.978Z,11.43
2023-05-01T06:36:21.940Z,11.43
2023-05-01T06:37:21.930Z,11.43
2023-05-01T06:38:21.913Z,11.46
2023-05-01T06:39:21.919Z,11.47
2023-05-01T06:40:21.902Z,11.44
2023-05-01T06:41:21.887Z,11.41
2023-05-01T06:42:21.884Z,11.36
2023-05-01T06:43:21.878Z,11.34
2023-05-01T06:44:21.842Z,11.29
2023-05-01T06:45:21.854Z,11.32
2023-05-01T06:46:21.876Z,11.34
2023-05-01T06:47:21.868Z,11.29
2023-05-01T06:48:21.811Z,11.31
2023-05-01T06:49:21.805Z,11.39
2023-05-01T06:50:21.800Z,11.47
2023-05-01T06:51:21.786Z,11.52
2023-05-01T06:52:21.766Z,11.50
2023-05-01T06:53:21.756Z,11.50
2023-05-01T06:54:21.740Z,11.50
2023-05-01T06:55:21.751Z,11.53
2023-05-01T06:56:21.731Z,11.59
2023-05-01T06:57:21.730Z,11.67
2023-05-01T06:58:23.863Z,11.72
2023-05-01T06:59:21.719Z,11.85
2023-05-01T07:00:21.697Z,11.96
2023-05-01T07:01:21.801Z,12.05
2023-05-01T07:02:21.766Z,12.16
2023-05-01T07:03:21.791Z,12.26
2023-05-01T07:04:21.645Z,12.34
2023-05-01T07:05:21.648Z,12.37
2023-05-01T07:06:21.655Z,12.41
2023-05-01T07:07:21.601Z,12.49
2023-05-01T07:08:21.602Z,12.51
2023-05-01T07:09:21.589Z,12.59
2023-05-01T07:10:21.585Z,12.66
2023-05-01T07:11:21.570Z,12.69
2023-05-01T07:12:21.567Z,12.69
2023-05-01T07:13:21.551Z,12.66
2023-05-01T07:14:21.546Z,12.59
2023-05-01T07:15:21.552Z,12.52
2023-05-01T07:16:21.577Z,12.48
2023-05-01T07:17:21.549Z,12.41
2023-05-01T07:18:21.500Z,12.37
2023-05-01T07:19:21.483Z,12.29
2023-05-01T07:20:21.480Z,12.30
2023-05-01T07:21:21.472Z,12.30
2023-05-01T07:22:21.458Z,12.30
2023-05-01T07:23:21.481Z,12.30
2023-05-01T07:24:21.456Z,12.21
2023-05-01T07:25:21.446Z,12.19
2023-05-01T07:26:21.421Z,12.21
2023-05-01T07:27:21.414Z,12.24
2023-05-01T07:28:21.408Z,12.31
2023-05-01T07:29:21.387Z,12.37
2023-05-01T07:30:21.397Z,12.44
2023-05-01T07:31:21.390Z,12.54
2023-05-01T07:32:21.571Z,12.67
2023-05-01T07:33:21.434Z,12.71
2023-05-01T07:34:21.346Z,12.69
2023-05-01T07:35:21.339Z,12.74
2023-05-01T07:36:21.299Z,12.81
2023-05-01T07:37:21.314Z,12.85
2023-05-01T07:38:21.288Z,12.85
2023-05-01T07:39:21.298Z,12.82
2023-05-01T07:40:21.309Z,12.78
2023-05-01T07:41:21.270Z,12.67
2023-05-01T07:42:21.281Z,12.59
2023-05-01T07:43:21.266Z,12.48
2023-05-01T07:44:21.252Z,12.39
2023-05-01T07:45:21.268Z,12.39
2023-05-01T07:46:21.248Z,12.38
2023-05-01T07:47:21.193Z,12.39
2023-05-01T07:48:21.201Z,12.41
2023-05-01T07:49:21.181Z,12.44
2023-05-01T07:50:21.187Z,12.46
2023-05-01T07:51:21.164Z,12.46
2023-05-01T07:52:21.143Z,12.44
2023-05-01T07:53:21.188Z,12.48
2023-05-01T07:54:21.122Z,12.48
2023-05-01T07:55:21.124Z,12.52
2023-05-01T07:56:21.129Z,12.56
2023-05-01T07:57:21.083Z,12.60
2023-05-01T07:58:21.084Z,12.69
2023-05-01T07:59:21.150Z,12.66
2023-05-01T08:00:21.140Z,12.74
2023-05-01T08:01:21.094Z,12.84
2023-05-01T08:02:21.105Z,12.85
2023-05-01T08:03:21.199Z,12.87
2023-05-01T08:04:21.080Z,12.92
2023-05-01T08:05:21.051Z,12.93
2023-05-01T08:06:21.037Z,12.95
2023-05-01T08:07:21.007Z,12.92
2023-05-01T08:08:20.987Z,12.93
2023-05-01T08:09:20.959Z,12.96
2023-05-01T08:10:20.959Z,12.96
2023-05-01T08:11:20.948Z,13.03
2023-05-01T08:12:20.975Z,13.11
2023-05-01T08:13:20.940Z,13.21
2023-05-01T08:14:20.920Z,13.36
2023-05-01T08:15:20.979Z,13.55
2023-05-01T08:16:22.140Z,13.69
2023-05-01T08:17:20.917Z,13.77
2023-05-01T08:18:21.343Z,13.84
2023-05-01T08:19:20.870Z,13.81
2023-05-01T08:20:20.889Z,13.87
2023-05-01T08:21:20.858Z,13.83
2023-05-01T08:22:20.833Z,13.80
2023-05-01T08:23:20.844Z,13.87
2023-05-01T08:24:20.817Z,13.92
2023-05-01T08:25:20.833Z,13.96
2023-05-01T08:26:22.434Z,13.89
2023-05-01T08:27:20.803Z,13.89
2023-05-01T08:28:20.904Z,13.95
2023-05-01T08:29:20.758Z,14.10
2023-05-01T08:30:20.764Z,14.14
2023-05-01T08:31:20.802Z,14.24
2023-05-01T08:32:20.722Z,14.27
2023-05-01T08:33:20.718Z,14.21
2023-05-01T08:34:20.715Z,14.17
2023-05-01T08:35:20.744Z,14.09
2023-05-01T08:36:21.300Z,14.19
2023-05-01T08:37:20.724Z,14.32
2023-05-01T08:38:20.693Z,14.39
2023-05-01T08:39:20.740Z,14.46
2023-05-01T08:40:20.669Z,14.60
2023-05-01T08:41:20.648Z,14.71
2023-05-01T08:42:20.654Z,14.65
2023-05-01T08:43:20.631Z,14.84
2023-05-01T08:44:20.607Z,15.11
2023-05-01T08:45:20.603Z,15.33
2023-05-01T08:46:20.637Z,15.27
2023-05-01T08:47:20.669Z,15.11
2023-05-01T08:48:20.573Z,15.06
2023-05-01T08:49:20.548Z,15.24
2023-05-01T08:50:20.557Z,15.28
2023-05-01T08:51:21.273Z,15.17
2023-05-01T08:52:20.508Z,15.30
2023-05-01T08:53:20.526Z,15.42
2023-05-01T08:54:20.512Z,15.27
2023-05-01T08:55:20.517Z,15.24
2023-05-01T08:56:20.485Z,15.23
2023-05-01T08:57:20.498Z,15.28
2023-05-01T08:58:20.446Z,15.39
2023-05-01T08:59:20.455Z,15.36
2023-05-01T09:00:20.878Z,15.15
2023-05-01T09:01:20.500Z,15.11
2023-05-01T09:02:20.460Z,15.21
2023-05-01T09:03:20.510Z,15.27
2023-05-01T09:04:20.523Z,15.33
2023-05-01T09:05:20.391Z,15.35
2023-05-01T09:06:20.427Z,15.39
2023-05-01T09:07:20.366Z,15.28
2023-05-01T09:08:20.364Z,15.12
2023-05-01T09:09:20.332Z,14.99
2023-05-01T09:10:20.451Z,14.94
2023-05-01T09:11:20.318Z,15.12
2023-05-01T09:12:20.302Z,15.33
2023-05-01T09:13:20.324Z,15.49
2023-05-01T09:14:20.293Z,15.57
2023-05-01T09:15:20.319Z,15.68
2023-05-01T09:16:20.340Z,15.88
2023-05-01T09:17:20.417Z,15.99
2023-05-01T09:18:20.277Z,16.18
2023-05-01T09:19:20.237Z,16.27
2023-05-01T09:20:20.248Z,16.15
2023-05-01T09:21:20.227Z,15.96
2023-05-01T09:22:20.225Z,16.01
2023-05-01T09:23:20.233Z,16.15
2023-05-01T09:24:20.194Z,16.33
2023-05-01T09:25:20.210Z,16.34
2023-05-01T09:26:20.172Z,16.42
2023-05-01T09:27:20.186Z,16.37
2023-05-01T09:28:20.151Z,16.38
2023-05-01T09:29:20.160Z,16.44
2023-05-01T09:30:20.186Z,16.56
2023-05-01T09:31:20.191Z,16.55
2023-05-01T09:32:20.252Z,16.49
2023-05-01T09:33:20.125Z,16.50
2023-05-01T09:34:20.092Z,16.62
2023-05-01T09:35:20.074Z,16.78
2023-05-01T09:36:20.062Z,16.93
2023-05-01T09:37:20.061Z,16.98
2023-05-01T09:38:20.046Z,16.85
2023-05-01T09:39:20.028Z,16.78
2023-05-01T09:40:20.045Z,16.65
2023-05-01T09:41:20.061Z,16.50
2023-05-01T09:42:20.032Z,16.37
2023-05-01T09:43:19.991Z,16.37
2023-05-01T09:44:19.966Z,16.38
2023-05-01T09:45:20.026Z,16.44
2023-05-01T09:46:20.050Z,16.38
2023-05-01T09:47:19.938Z,16.37
2023-05-01T09:48:19.960Z,16.44
2023-05-01T09:49:19.963Z,16.53
2023-05-01T09:50:19.934Z,16.65
2023-05-01T09:51:19.919Z,16.80
2023-05-01T09:52:19.912Z,17.03
2023-05-01T09:53:19.917Z,17.15
2023-05-01T09:54:19.912Z,17.28
2023-05-01T09:55:19.879Z,17.30
2023-05-01T09:56:19.863Z,17.38
2023-05-01T09:57:19.858Z,17.40
2023-05-01T09:58:19.830Z,17.41
2023-05-01T09:59:19.855Z,17.33
2023-05-01T10:00:19.835Z,17.13
2023-05-01T10:01:19.855Z,17.15
2023-05-01T10:02:19.810Z,17.22
2023-05-01T10:03:19.849Z,17.23
2023-05-01T10:04:19.800Z,17.14
2023-05-01T10:05:19.810Z,16.81
2023-05-01T10:06:19.786Z,16.77
2023-05-01T10:07:19.760Z,16.74
2023-05-01T10:08:19.746Z,16.86
2023-05-01T10:09:19.731Z,16.92
2023-05-01T10:10:19.722Z,16.98
2023-05-01T10:11:19.714Z,17.14
2023-05-01T10:12:19.704Z,17.32
2023-05-01T10:13:19.693Z,17.44
2023-05-01T10:14:19.673Z,17.46
2023-05-01T10:15:25.329Z,17.41
2023-05-01T10:16:19.680Z,17.53
2023-05-01T10:17:19.857Z,17.55
2023-05-01T10:18:19.666Z,17.53
2023-05-01T10:19:19.636Z,17.54
2023-05-01T10:20:19.624Z,17.38
2023-05-01T10:21:19.661Z,17.04
2023-05-01T10:22:19.608Z,17.08
2023-05-01T10:23:19.595Z,17.18
2023-05-01T10:24:20.213Z,17.32
2023-05-01T10:25:19.576Z,17.44
2023-05-01T10:26:19.561Z,17.48
2023-05-01T10:27:19.560Z,17.55
2023-05-01T10:28:19.530Z,17.44
2023-05-01T10:29:19.546Z,17.46
2023-05-01T10:30:19.526Z,17.50
2023-05-01T10:31:19.511Z,17.55
2023-05-01T10:32:19.516Z,17.59
2023-05-01T10:33:19.571Z,17.66
2023-05-01T10:34:19.542Z,17.73
2023-05-01T10:35:19.466Z,17.74
2023-05-01T10:36:19.492Z,17.79
2023-05-01T10:37:19.458Z,17.84
2023-05-01T10:38:19.424Z,17.67
2023-05-01T10:39:19.437Z,17.59
2023-05-01T10:40:19.441Z,17.54
2023-05-01T10:41:19.399Z,17.50
2023-05-01T10:42:19.400Z,17.41
2023-05-01T10:43:19.377Z,17.25
2023-05-01T10:44:19.367Z,17.15
2023-05-01T10:45:19.374Z,17.13
2023-05-01T10:46:19.558Z,17.06
2023-05-01T10:47:19.388Z,17.07
2023-05-01T10:48:19.332Z,17.03
2023-05-01T10:49:19.370Z,16.98
2023-05-01T10:50:19.304Z,16.88
2023-05-01T10:51:19.289Z,16.75
2023-05-01T10:52:19.267Z,16.67
2023-05-01T10:53:19.293Z,16.49
2023-05-01T10:54:19.244Z,16.48
2023-05-01T10:55:19.280Z,16.48
2023-05-01T10:56:19.242Z,16.49
2023-05-01T10:57:19.233Z,16.48
2023-05-01T10:58:19.224Z,16.50
2023-05-01T10:59:19.205Z,16.45
2023-05-01T11:00:19.230Z,16.37
2023-05-01T11:01:19.249Z,16.27
2023-05-01T11:02:19.335Z,16.23
2023-05-01T11:03:19.149Z,16.20
2023-05-01T11:04:19.227Z,16.12
2023-05-01T11:05:28.917Z,16.09
2023-05-01T11:06:19.237Z,15.99
2023-05-01T11:07:19.365Z,15.86
2023-05-01T11:08:19.121Z,15.79
2023-05-01T11:09:19.129Z,15.68
2023-05-01T11:10:19.121Z,15.67
2023-05-01T11:11:19.093Z,15.60
2023-05-01T11:12:19.099Z,15.52
2023-05-01T11:13:19.066Z,15.48
2023-05-01T11:14:19.054Z,15.48
2023-05-01T11:15:19.045Z,15.49
2023-05-01T11:16:19.140Z,15.52
2023-05-01T11:17:19.034Z,15.51
2023-05-01T11:18:19.038Z,15.54
2023-05-01T11:19:19.122Z,15.54
2023-05-01T11:20:19.013Z,15.51
2023-05-01T11:21:18.990Z,15.43
2023-05-01T11:22:19.006Z,15.41
2023-05-01T11:23:18.951Z,15.30
2023-05-01T11:24:19.002Z,15.21
2023-05-01T11:25:19.009Z,15.17
2023-05-01T11:26:18.932Z,15.13
2023-05-01T11:27:18.932Z,15.08
2023-05-01T11:28:18.903Z,14.95
2023-05-01T11:29:18.907Z,14.87
2023-05-01T11:30:18.904Z,14.86
2023-05-01T11:31:19.025Z,14.87
2023-05-01T11:32:19.129Z,14.84
2023-05-01T11:33:18.986Z,14.75
2023-05-01T11:34:18.853Z,14.74
2023-05-01T11:35:18.854Z,14.75
2023-05-01T11:36:18.829Z,14.81
2023-05-01T11:37:18.822Z,14.83
2023-05-01T11:38:18.824Z,14.75
2023-05-01T11:39:18.808Z,14.72
2023-05-01T11:40:18.782Z,14.69
2023-05-01T11:41:20.288Z,14.62
2023-05-01T11:42:18.796Z,14.54
2023-05-01T11:43:18.839Z,14.47
2023-05-01T11:44:18.841Z,14.43
2023-05-01T11:45:18.749Z,14.42
2023-05-01T11:46:18.777Z,14.35
2023-05-01T11:47:18.807Z,14.31
2023-05-01T11:48:18.841Z,14.32
2023-05-01T11:49:18.735Z,14.37
2023-05-01T11:50:18.782Z,14.42
2023-05-01T11:51:18.774Z,14.47
2023-05-01T11:52:18.753Z,14.47
2023-05-01T11:53:18.693Z,14.52
2023-05-01T11:54:18.637Z,14.61
2023-05-01T11:55:18.624Z,14.64
2023-05-01T11:57:18.601Z,14.69
2023-05-01T11:58:18.610Z,14.68
2023-05-01T11:59:18.592Z,14.75
2023-05-01T12:00:18.621Z,14.80
2023-05-01T12:01:18.611Z,14.87
2023-05-01T12:02:18.673Z,14.93
2023-05-01T12:03:18.783Z,14.98
2023-05-01T12:04:18.696Z,14.95
2023-05-01T12:05:18.717Z,14.93
2023-05-01T12:06:18.593Z,14.94
2023-05-01T12:07:18.584Z,14.95
2023-05-01T12:08:18.539Z,15.01
2023-05-01T12:09:18.597Z,15.11
2023-05-01T12:10:18.485Z,15.12
2023-05-01T12:11:18.477Z,15.24
2023-05-01T12:12:18.463Z,15.36
2023-05-01T12:13:18.483Z,15.43
2023-05-01T12:14:18.443Z,15.54
2023-05-01T12:15:18.436Z,15.64
2023-05-01T12:16:18.511Z,15.74
2023-05-01T12:17:18.540Z,15.81
2023-05-01T12:18:18.514Z,15.82
2023-05-01T12:19:18.392Z,15.88
2023-05-01T12:20:18.397Z,15.89
2023-05-01T12:21:18.365Z,15.92
2023-05-01T12:22:18.372Z,15.81
2023-05-01T12:23:18.334Z,15.78
2023-05-01T12:24:18.345Z,15.70
2023-05-01T12:25:18.374Z,15.61
2023-05-01T12:26:18.317Z,15.45
2023-05-01T12:27:18.324Z,15.33
2023-05-01T12:28:18.312Z,15.24
2023-05-01T12:29:18.277Z,15.17
2023-05-01T12:30:18.284Z,15.08
2023-05-01T12:31:18.320Z,15.08
2023-05-01T12:32:18.278Z,15.01
2023-05-01T12:33:18.370Z,14.90
2023-05-01T12:34:18.234Z,14.87
2023-05-01T12:35:18.286Z,14.83
2023-05-01T12:36:18.267Z,14.83
2023-05-01T12:37:18.183Z,14.84
2023-05-01T12:38:18.241Z,14.84
2023-05-01T12:39:18.220Z,14.78
2023-05-01T12:40:18.184Z,14.75
2023-05-01T12:41:18.159Z,14.68
2023-05-01T12:42:18.203Z,14.62
2023-05-01T12:43:18.116Z,14.60
2023-05-01T12:44:18.164Z,14.56
2023-05-01T12:45:18.132Z,14.57
2023-05-01T12:46:18.190Z,14.56
2023-05-01T12:47:18.112Z,14.60
2023-05-01T12:48:18.307Z,14.62
2023-05-01T12:49:18.072Z,14.62
2023-05-01T12:50:18.067Z,14.57
2023-05-01T12:51:18.080Z,14.57
2023-05-01T12:52:18.086Z,14.61
2023-05-01T12:53:18.015Z,14.69
2023-05-01T12:54:18.111Z,14.74